Terminal Aerodrome Forecast
Issued by NWS Jackson, KY

Home | Current Version | Previous Version | Text Only | Print | Product List | Glossary On
Versions: 1 2 3 4 5 6 7 8 9 10 11 12 13 14 15 16 17 18
100
FTUS43 KJKL 211509 AAC
TAFJKL
TAF AMD
KJKL 211509Z 2115/2212 19004KT P6SM -SHRA SCT025 OVC040
      TEMPO 2115/2117 4SM -SHRA BKN025
     FM211700 20004KT 5SM SHRA VCTS OVC030CB
     FM220100 VRB03KT P6SM -SHRA OVC090
     FM220600 28004KT P6SM VCSH OVC025=

USA.gov is the U.S. government's official web portal to all federal, state and local government web resources and services.